Time;durP1;ratioP1;P1;durP2;ratioP2;P2;SDS_P1;SDS_P2;PMS_P1;PMS_P2;Temp;Humidity;BMP_temperature;BMP_pressure;BME280_temperature;BME280_humidity;BME280_pressure;Samples;Min_cycle;Max_cycle;Signal;HPM_P1;HPM_P2
2022/05/29 00:01:17;;;;;;;6.62;2.98;;;;;;;9.40;79.42;95392.58;1724171;82;21449;-67
2022/05/29 00:03:44;;;;;;;5.90;3.10;;;;;;;9.42;79.07;95395.61;1723885;83;21038;-67
2022/05/29 00:06:12;;;;;;;3.40;2.33;;;;;;;9.44;78.58;95397.78;1724055;82;20979;-66
2022/05/29 00:08:42;;;;;;;5.70;2.37;;;;;;;9.50;78.28;95395.05;1724141;83;21061;-67
2022/05/29 00:11:13;;;;;;;4.47;2.17;;;;;;;9.46;78.02;95389.86;1723936;82;21073;-66
2022/05/29 00:13:42;;;;;;;6.63;2.30;;;;;;;9.43;77.75;95389.47;1724136;82;21023;-66
2022/05/29 00:16:08;;;;;;;7.30;1.90;;;;;;;9.45;77.82;95388.11;1723981;83;21042;-67
2022/05/29 00:18:37;;;;;;;4.77;2.13;;;;;;;9.41;77.12;95380.72;1724026;83;21034;-67
2022/05/29 00:21:06;;;;;;;5.03;2.07;;;;;;;9.36;77.44;95381.25;1723998;83;21021;-67
2022/05/29 00:23:40;;;;;;;1.93;1.73;;;;;;;9.31;78.26;95377.38;1724004;82;21512;-67
2022/05/29 00:26:07;;;;;;;4.80;1.80;;;;;;;9.25;77.79;95370.91;1724115;83;21046;-67
2022/05/29 00:28:34;;;;;;;3.37;1.73;;;;;;;9.22;77.74;95372.70;1724118;83;21075;-67
2022/05/29 00:31:00;;;;;;;2.87;1.50;;;;;;;9.20;78.06;95368.80;1723943;83;21415;-67
2022/05/29 00:33:28;;;;;;;3.63;1.60;;;;;;;9.14;78.13;95370.20;1723864;83;21800;-67
2022/05/29 00:35:55;;;;;;;4.20;1.80;;;;;;;9.12;78.68;95367.17;1724005;82;21031;-67
2022/05/29 00:38:22;;;;;;;4.70;3.07;;;;;;;9.12;78.88;95364.09;1723683;83;21030;-67
2022/05/29 00:41:00;;;;;;;3.90;2.47;;;;;;;9.06;80.11;95361.13;1724136;82;20979;-67
2022/05/29 00:43:26;;;;;;;6.23;2.73;;;;;;;9.06;80.93;95363.75;1724020;83;21020;-67
2022/05/29 00:46:02;;;;;;;3.27;2.20;;;;;;;9.12;79.92;95366.72;1724092;83;21038;-67
2022/05/29 00:48:29;;;;;;;4.87;2.13;;;;;;;9.12;79.64;95368.04;1724331;83;20995;-67
2022/05/29 00:51:03;;;;;;;3.10;2.30;;;;;;;9.10;79.31;95371.17;1724005;83;21003;-67
2022/05/29 00:53:32;;;;;;;8.70;1.80;;;;;;;9.06;80.92;95366.39;1723959;83;21055;-67
2022/05/29 00:56:02;;;;;;;2.53;1.90;;;;;;;9.05;79.84;95365.98;1724054;83;20999;-67
2022/05/29 00:58:29;;;;;;;6.63;3.40;;;;;;;9.00;80.07;95366.95;1724034;82;21066;-67
2022/05/29 01:00:57;;;;;;;9.67;3.57;;;;;;;9.01;79.78;95375.25;1724047;83;21039;-67
2022/05/29 01:03:24;;;;;;;3.50;1.90;;;;;;;9.00;79.96;95373.08;1724166;83;21014;-67
2022/05/29 01:05:51;;;;;;;3.23;1.60;;;;;;;8.98;80.51;95384.07;1723916;83;21056;-67
2022/05/29 01:08:31;;;;;;;5.83;1.87;;;;;;;8.98;80.12;95376.63;1724327;83;21023;-67
2022/05/29 01:11:28;;;;;;;3.33;1.77;;;;;;;9.08;80.37;95379.08;1724021;82;21023;-67
2022/05/29 01:14:09;;;;;;;3.43;1.80;;;;;;;9.15;79.96;95384.23;1719773;83;21054;-67
2022/05/29 01:16:57;;;;;;;2.93;1.60;;;;;;;9.14;79.86;95380.73;1723811;83;21008;-67
2022/05/29 01:19:56;;;;;;;2.33;1.40;;;;;;;9.16;79.29;95382.03;1723947;82;21500;-67
2022/05/29 01:22:51;;;;;;;3.80;2.10;;;;;;;9.09;79.92;95377.31;1723608;83;21071;-67
2022/05/29 01:25:47;;;;;;;4.30;1.70;;;;;;;9.10;80.10;95374.66;1724038;83;21033;-67
2022/05/29 01:28:43;;;;;;;4.80;2.30;;;;;;;9.10;79.68;95367.22;1724175;82;21046;-66
2022/05/29 01:31:24;;;;;;;4.10;1.70;;;;;;;9.02;80.20;95360.77;1713120;83;21039;-67
2022/05/29 01:33:58;;;;;;;2.90;1.50;;;;;;;9.05;80.35;95362.03;1724175;82;21072;-67
2022/05/29 01:36:55;;;;;;;5.23;2.00;;;;;;;9.04;79.84;95351.52;1720072;83;21503;-67
2022/05/29 01:39:27;;;;;;;3.03;1.63;;;;;;;9.08;79.93;95358.02;1723044;83;21047;-66
2022/05/29 01:42:04;;;;;;;2.87;1.90;;;;;;;9.06;79.42;95358.48;1724252;83;21026;-67
2022/05/29 01:44:48;;;;;;;3.33;1.67;;;;;;;9.07;79.46;95368.56;1724218;82;21535;-67
2022/05/29 01:47:26;;;;;;;2.27;1.80;;;;;;;8.90;79.26;95372.80;1724101;83;21042;-66
2022/05/29 01:49:58;;;;;;;2.87;1.93;;;;;;;8.90;79.75;95368.00;1723591;83;21034;-67
2022/05/29 01:52:31;;;;;;;3.63;1.80;;;;;;;8.85;79.59;95358.40;1724083;83;21026;-67
2022/05/29 01:55:10;;;;;;;3.55;1.98;;;;;;;8.71;79.93;95362.99;1724278;83;21019;-67
2022/05/29 01:57:40;;;;;;;2.20;1.73;;;;;;;8.55;79.86;95372.88;1710881;83;21070;-66
2022/05/29 02:00:20;;;;;;;5.40;1.80;;;;;;;8.48;80.92;95374.30;1724234;83;21496;-66
2022/05/29 02:03:01;;;;;;;3.13;1.60;;;;;;;8.38;80.77;95375.70;1724140;83;20995;-66
2022/05/29 02:05:35;;;;;;;2.47;1.90;;;;;;;8.29;80.81;95371.01;1723058;83;21007;-66
2022/05/29 02:08:13;;;;;;;3.60;2.07;;;;;;;8.17;80.56;95365.48;1724206;83;21050;-66
2022/05/29 02:10:53;;;;;;;1.83;1.70;;;;;;;8.15;80.33;95365.95;1723413;83;21011;-66
2022/05/29 02:13:49;;;;;;;8.07;4.93;;;;;;;8.14;80.32;95366.81;1724192;83;21007;-66
2022/05/29 02:16:30;;;;;;;5.10;2.53;;;;;;;8.07;81.50;95370.44;1724148;83;21512;-66
2022/05/29 02:19:37;;;;;;;2.40;2.03;;;;;;;7.99;81.67;95358.26;1723628;83;21054;-66
2022/05/29 02:22:18;;;;;;;5.47;2.07;;;;;;;8.06;81.55;95349.83;1723642;83;21050;-66
2022/05/29 02:24:51;;;;;;;4.23;2.33;;;;;;;8.03;80.93;95354.69;1723658;83;21023;-66
2022/05/29 02:27:32;;;;;;;4.67;2.50;;;;;;;8.03;81.94;95363.02;1724289;83;21034;-66
2022/05/29 02:30:01;;;;;;;6.73;2.40;;;;;;;8.07;82.41;95348.97;1724004;83;21023;-66
2022/05/29 02:32:55;;;;;;;6.60;2.27;;;;;;;8.11;82.36;95331.39;1724356;83;21006;-66
2022/05/29 02:35:36;;;;;;;4.55;2.62;;;;;;;8.12;81.71;95337.95;1724315;82;21015;-66
2022/05/29 02:38:17;;;;;;;2.93;2.20;;;;;;;8.21;82.16;95342.20;1723889;83;21091;-66
2022/05/29 02:41:17;;;;;;;2.57;1.70;;;;;;;8.30;81.90;95339.91;1723242;83;21154;-66
2022/05/29 02:43:58;;;;;;;3.63;2.30;;;;;;;8.23;81.27;95341.73;1723998;83;21523;-66
2022/05/29 02:46:36;;;;;;;2.73;1.90;;;;;;;8.19;82.49;95349.26;1723275;83;21031;-66
2022/05/29 02:49:34;;;;;;;3.23;2.23;;;;;;;8.17;82.18;95351.89;1723314;83;21067;-66
2022/05/29 02:52:09;;;;;;;5.30;2.30;;;;;;;8.23;82.39;95356.20;1723608;83;21031;-66
2022/05/29 02:54:35;;;;;;;4.13;2.23;;;;;;;8.35;82.19;95349.46;1724233;83;21019;-66
2022/05/29 02:57:03;;;;;;;2.53;1.87;;;;;;;8.46;82.20;95341.45;1724114;83;21003;-66
2022/05/29 02:59:36;;;;;;;3.97;2.80;;;;;;;8.57;81.92;95335.60;1724086;82;21007;-66
2022/05/29 03:02:20;;;;;;;3.40;2.33;;;;;;;8.61;81.11;95342.98;1723968;83;21068;-66
2022/05/29 03:05:10;;;;;;;3.67;2.53;;;;;;;8.70;81.27;95343.31;1723743;83;21126;-66
2022/05/29 03:08:11;;;;;;;3.40;2.37;;;;;;;8.70;81.12;95338.05;1724174;83;20995;-66
2022/05/29 03:10:48;;;;;;;3.67;1.80;;;;;;;8.79;81.46;95334.80;1724253;83;21461;-66
2022/05/29 03:13:33;;;;;;;7.70;2.07;;;;;;;8.82;80.66;95330.83;1720500;83;21062;-66
2022/05/29 03:16:16;;;;;;;4.37;2.10;;;;;;;8.81;80.34;95329.53;1692722;83;21506;-66
2022/05/29 03:19:03;;;;;;;27.63;19.87;;;;;;;8.79;80.70;95334.80;1724416;83;21022;-66
2022/05/29 03:21:53;;;;;;;8.33;5.60;;;;;;;8.75;81.18;95333.58;1723754;83;21067;-66
2022/05/29 03:24:45;;;;;;;15.90;8.90;;;;;;;8.78;81.41;95332.22;1724265;83;21047;-66
2022/05/29 03:27:35;;;;;;;12.63;6.27;;;;;;;8.94;81.30;95330.19;1723971;83;21019;-66
2022/05/29 03:30:16;;;;;;;8.83;3.80;;;;;;;9.07;80.95;95334.35;1724150;83;21057;-66
2022/05/29 03:32:43;;;;;;;6.70;3.40;;;;;;;9.12;80.46;95334.28;1724164;83;21031;-66
2022/05/29 03:35:28;;;;;;;6.03;4.00;;;;;;;9.17;80.41;95341.65;1723822;83;21079;-66
2022/05/29 03:37:55;;;;;;;6.30;4.57;;;;;;;9.22;80.27;95343.75;1723971;83;21031;-66
2022/05/29 03:40:26;;;;;;;9.93;5.60;;;;;;;9.23;80.18;95350.77;1728257;83;21006;-66
2022/05/29 03:42:53;;;;;;;10.53;5.50;;;;;;;9.19;80.49;95349.94;1729538;83;21488;-66
2022/05/29 03:45:21;;;;;;;11.10;6.20;;;;;;;9.21;80.48;95351.23;1729561;83;21019;-66
2022/05/29 03:47:47;;;;;;;9.83;6.10;;;;;;;9.23;80.26;95349.45;1729339;83;20998;-66
2022/05/29 03:50:18;;;;;;;7.53;5.87;;;;;;;9.26;80.11;95354.66;1729648;83;21074;-66
2022/05/29 03:52:46;;;;;;;7.70;5.77;;;;;;;9.30;80.34;95364.26;1729511;82;21023;-67
2022/05/29 03:55:15;;;;;;;9.00;6.33;;;;;;;9.27;80.91;95356.39;1729138;82;21126;-67
2022/05/29 03:57:42;;;;;;;12.93;8.00;;;;;;;9.28;80.71;95351.11;1729516;83;21468;-67
2022/05/29 04:00:12;;;;;;;9.33;5.93;;;;;;;9.34;80.58;95356.70;1729457;83;20983;-67
2022/05/29 04:02:40;;;;;;;9.37;5.83;;;;;;;9.31;80.41;95348.41;1729534;83;20999;-66
2022/05/29 04:05:11;;;;;;;11.77;5.83;;;;;;;9.33;80.23;95348.40;1729482;83;21067;-67
2022/05/29 04:13:11;;;;;;;8.07;5.83;;;;;;;9.44;80.44;95330.63;1729569;83;21023;-67
2022/05/29 04:15:45;;;;;;;6.47;4.40;;;;;;;9.47;80.72;95325.75;1729379;82;21034;-67
2022/05/29 04:18:07;;;;;;;4.37;3.00;;;;;;;9.51;80.81;95322.17;1728522;83;21015;-67
2022/05/29 04:20:34;;;;;;;5.83;3.13;;;;;;;9.53;80.41;95315.12;1729533;83;21500;-66
2022/05/29 04:23:01;;;;;;;5.47;3.00;;;;;;;9.59;79.87;95316.30;1729379;83;21078;-66
2022/05/29 04:25:28;;;;;;;5.70;2.60;;;;;;;9.66;79.53;95317.06;1729692;83;20999;-66
2022/05/29 04:27:54;;;;;;;5.53;2.70;;;;;;;9.69;79.04;95319.17;1729451;83;21520;-66
2022/05/29 04:30:21;;;;;;;3.90;2.17;;;;;;;9.78;78.99;95324.73;1729548;83;21047;-66
2022/05/29 04:33:00;;;;;;;2.93;2.30;;;;;;;9.86;78.27;95316.22;1729532;83;21019;-66
2022/05/29 04:35:31;;;;;;;9.40;2.37;;;;;;;9.99;78.53;95315.52;1729597;82;21002;-66
2022/05/29 04:37:59;;;;;;;4.40;2.50;;;;;;;10.11;78.08;95316.58;1729627;83;21030;-66
2022/05/29 04:40:26;;;;;;;5.20;2.70;;;;;;;10.24;78.22;95313.68;1729359;83;21496;-66
2022/05/29 04:42:52;;;;;;;8.67;2.90;;;;;;;10.37;77.68;95310.76;1729280;83;21038;-66
2022/05/29 04:45:19;;;;;;;4.00;2.83;;;;;;;10.53;77.07;95303.81;1729419;83;21530;-66
2022/05/29 04:47:45;;;;;;;5.35;3.17;;;;;;;10.57;76.79;95297.58;1729745;83;21022;-67
2022/05/29 04:50:12;;;;;;;3.98;3.10;;;;;;;10.66;77.07;95297.38;1729201;83;21046;-67
2022/05/29 04:52:39;;;;;;;5.00;2.83;;;;;;;10.76;76.46;95291.39;1729482;83;21448;-66
2022/05/29 04:55:08;;;;;;;3.62;2.67;;;;;;;10.86;75.94;95286.34;1729583;82;21002;-67
2022/05/29 04:57:36;;;;;;;5.83;3.42;;;;;;;11.08;76.20;95288.42;1729441;83;21027;-66
2022/05/29 05:00:06;;;;;;;5.03;3.33;;;;;;;11.22;75.73;95295.55;1729502;82;21027;-67
2022/05/29 05:02:33;;;;;;;4.58;3.00;;;;;;;11.29;74.76;95286.56;1729591;82;21098;-67
2022/05/29 05:04:59;;;;;;;6.72;2.80;;;;;;;11.43;74.75;95290.14;1729490;83;21039;-67
2022/05/29 05:07:25;;;;;;;5.12;2.90;;;;;;;11.57;73.58;95285.36;1729417;82;21070;-67
2022/05/29 05:09:52;;;;;;;5.25;2.60;;;;;;;11.66;73.02;95278.94;1729910;82;20975;-67
2022/05/29 05:12:18;;;;;;;5.03;2.60;;;;;;;11.67;73.61;95279.38;1729573;83;21011;-67
2022/05/29 05:14:45;;;;;;;4.92;2.60;;;;;;;11.77;73.62;95272.92;1729859;82;21030;-67
2022/05/29 05:17:12;;;;;;;3.50;2.55;;;;;;;11.79;72.72;95272.86;1729671;83;21027;-67
2022/05/29 05:19:39;;;;;;;4.95;2.35;;;;;;;11.82;72.32;95267.50;1729622;83;21018;-67
2022/05/29 05:22:08;;;;;;;3.35;2.17;;;;;;;11.86;72.12;95262.52;1729391;83;21015;-67
2022/05/29 05:24:37;;;;;;;3.98;1.77;;;;;;;11.85;71.08;95258.16;1729678;82;21034;-67
2022/05/29 05:27:08;;;;;;;4.92;1.70;;;;;;;11.82;71.06;95261.75;1729503;82;21046;-67
2022/05/29 05:29:34;;;;;;;2.55;1.70;;;;;;;11.89;71.51;95259.38;1729742;83;21006;-67
2022/05/29 05:32:02;;;;;;;5.30;1.70;;;;;;;12.04;71.09;95257.18;1729472;83;21007;-67
2022/05/29 05:34:28;;;;;;;4.33;1.98;;;;;;;12.12;71.29;95256.52;1729578;83;21066;-67
2022/05/29 05:36:56;;;;;;;4.03;1.82;;;;;;;12.29;71.96;95259.95;1729692;83;20995;-67
2022/05/29 05:39:23;;;;;;;8.35;1.60;;;;;;;12.49;70.71;95258.88;1728352;83;21078;-66
2022/05/29 05:41:50;;;;;;;6.25;1.52;;;;;;;12.62;67.99;95264.64;1724558;83;21015;-67
2022/05/29 05:44:17;;;;;;;4.17;1.70;;;;;;;12.63;66.29;95251.84;1724195;83;21509;-67
2022/05/29 05:46:47;;;;;;;2.40;1.77;;;;;;;12.66;65.70;95241.61;1724061;83;21067;-67
2022/05/29 05:49:18;;;;;;;3.98;1.62;;;;;;;12.80;67.58;95235.84;1723590;83;21046;-67
2022/05/29 05:51:45;;;;;;;3.52;1.70;;;;;;;12.94;66.44;95230.97;1724359;83;21071;-66
2022/05/29 05:54:13;;;;;;;5.53;1.65;;;;;;;12.92;66.20;95238.09;1723931;82;21082;-66
2022/05/29 05:56:45;;;;;;;2.15;1.72;;;;;;;13.05;66.56;95246.48;1723904;83;21015;-66
2022/05/29 05:59:12;;;;;;;4.55;2.05;;;;;;;13.08;67.21;95241.08;1724422;83;21038;-66
2022/05/29 06:01:39;;;;;;;2.25;1.95;;;;;;;13.20;66.84;95240.66;1724087;83;21517;-67
2022/05/29 06:04:06;;;;;;;3.12;1.98;;;;;;;13.31;67.19;95243.86;1724110;83;21481;-67
2022/05/29 06:06:33;;;;;;;4.00;2.05;;;;;;;13.45;67.87;95249.12;1724313;83;20995;-66
2022/05/29 06:09:00;;;;;;;3.62;2.10;;;;;;;13.47;67.27;95245.50;1723772;82;21024;-66
2022/05/29 06:11:29;;;;;;;2.62;1.90;;;;;;;13.55;67.86;95250.06;1724079;82;21011;-66
2022/05/29 06:13:56;;;;;;;4.47;1.90;;;;;;;13.60;67.38;95255.20;1724048;83;21026;-66
2022/05/29 06:16:24;;;;;;;4.33;1.50;;;;;;;13.52;66.08;95253.30;1724212;82;21048;-66
2022/05/29 06:18:50;;;;;;;2.72;1.60;;;;;;;13.53;65.77;95258.55;1724323;82;21046;-67
2022/05/29 06:21:17;;;;;;;2.90;1.50;;;;;;;13.50;65.69;95255.13;1695236;83;21039;-67
2022/05/29 06:23:44;;;;;;;5.42;1.60;;;;;;;13.57;65.87;95250.88;1723992;83;21042;-67
2022/05/29 06:26:13;;;;;;;1.98;1.50;;;;;;;13.62;65.04;95251.58;1723989;83;21030;-66
2022/05/29 06:28:41;;;;;;;2.37;1.60;;;;;;;13.63;65.26;95232.55;1724153;83;20956;-67
2022/05/29 06:31:11;;;;;;;1.95;1.52;;;;;;;13.65;65.56;95246.63;1724120;83;21027;-67
2022/05/29 06:33:38;;;;;;;4.30;1.70;;;;;;;13.67;65.16;95256.72;1724149;83;21046;-66
2022/05/29 06:36:15;;;;;;;3.35;1.50;;;;;;;13.73;65.01;95243.23;1723913;83;21568;-67
2022/05/29 06:38:43;;;;;;;2.37;1.70;;;;;;;13.84;65.51;95230.45;1691066;83;21010;-67
2022/05/29 06:41:13;;;;;;;3.55;1.75;;;;;;;13.98;66.22;95237.02;1724031;83;21038;-67
2022/05/29 06:43:40;;;;;;;3.77;1.70;;;;;;;14.07;64.92;95240.66;1724004;83;21062;-67
2022/05/29 06:46:09;;;;;;;3.20;1.72;;;;;;;14.02;63.22;95247.47;1724058;83;21019;-67
2022/05/29 06:48:38;;;;;;;2.35;1.60;;;;;;;14.07;63.34;95255.25;1724120;83;20979;-67
2022/05/29 06:51:08;;;;;;;4.47;1.90;;;;;;;14.11;63.04;95252.91;1723988;83;21030;-67
2022/05/29 06:53:35;;;;;;;3.70;1.87;;;;;;;14.18;63.55;95257.03;1723715;83;21568;-67
2022/05/29 06:56:03;;;;;;;2.17;1.92;;;;;;;14.24;62.84;95260.80;1723899;83;21015;-67
2022/05/29 06:58:30;;;;;;;3.33;1.70;;;;;;;14.34;63.24;95264.40;1724267;83;21006;-66
2022/05/29 07:06:59;;;;;;;4.17;2.12;;;;;;;14.66;63.14;95265.83;1724194;82;20987;-66
2022/05/29 07:09:32;;;;;;;5.28;1.87;;;;;;;14.66;62.30;95261.38;1723979;83;21067;-67
2022/05/29 07:12:19;;;;;;;2.65;2.00;;;;;;;14.71;62.33;95255.42;1724150;83;21059;-66
2022/05/29 07:14:59;;;;;;;5.20;1.90;;;;;;;14.79;63.02;95256.91;1724182;83;21022;-66
2022/05/29 07:17:27;;;;;;;3.25;1.98;;;;;;;14.93;61.99;95265.19;1723502;83;21943;-66
2022/05/29 07:19:54;;;;;;;4.83;2.20;;;;;;;14.98;60.16;95273.84;1724234;83;21406;-66
2022/05/29 07:22:21;;;;;;;7.17;2.02;;;;;;;14.98;60.36;95265.01;1724124;83;21133;-67
2022/05/29 07:24:48;;;;;;;4.20;2.10;;;;;;;15.04;60.34;95264.27;1723811;83;21548;-66
2022/05/29 07:27:15;;;;;;;4.05;1.80;;;;;;;15.15;59.90;95271.82;1724132;83;21059;-66
2022/05/29 07:29:42;;;;;;;2.62;1.80;;;;;;;15.30;60.27;95260.55;1724169;82;20986;-66
2022/05/29 07:32:11;;;;;;;4.80;1.70;;;;;;;15.28;58.34;95262.39;1723995;83;21477;-67
2022/05/29 07:34:43;;;;;;;4.75;1.85;;;;;;;15.30;58.15;95264.53;1724281;83;21018;-66
2022/05/29 07:37:11;;;;;;;5.22;1.80;;;;;;;15.25;56.11;95268.32;1723624;83;21485;-66
2022/05/29 07:39:45;;;;;;;3.60;1.90;;;;;;;15.21;56.22;95262.25;1723754;83;21039;-67
2022/05/29 07:44:57;;;;;;;4.37;1.80;;;;;;;15.20;57.92;95270.30;1729464;83;21071;-66
2022/05/29 07:47:28;;;;;;;4.03;2.00;;;;;;;15.36;59.58;95272.23;1729004;83;21082;-66
2022/05/29 07:49:57;;;;;;;3.95;2.10;;;;;;;15.51;59.65;95262.73;1729502;83;21038;-66
2022/05/29 07:52:26;;;;;;;2.87;1.92;;;;;;;15.61;60.42;95265.87;1729337;83;21115;-67
2022/05/29 07:54:52;;;;;;;5.80;2.02;;;;;;;15.66;58.04;95261.69;1729424;82;21034;-66
2022/05/29 07:57:20;;;;;;;2.90;1.77;;;;;;;15.63;59.03;95260.02;1729446;83;21022;-66
2022/05/29 07:59:47;;;;;;;2.55;1.90;;;;;;;15.64;58.88;95264.87;1729343;83;21528;-67
2022/05/29 08:02:14;;;;;;;5.42;1.80;;;;;;;15.54;58.94;95267.06;1729189;83;21066;-66
2022/05/29 08:04:42;;;;;;;2.75;1.95;;;;;;;15.45;58.95;95261.69;1729504;82;21500;-66
2022/05/29 08:07:11;;;;;;;4.05;2.10;;;;;;;15.38;60.63;95253.57;1729237;83;21524;-67
2022/05/29 08:09:38;;;;;;;8.55;2.10;;;;;;;15.47;60.25;95250.97;1729361;83;21034;-66
2022/05/29 08:12:06;;;;;;;5.08;1.92;;;;;;;15.46;59.90;95250.58;1729444;83;21034;-67
2022/05/29 08:14:32;;;;;;;3.90;1.82;;;;;;;15.43;59.69;95253.37;1729450;83;20995;-66
2022/05/29 08:17:00;;;;;;;3.98;2.08;;;;;;;15.36;59.36;95245.65;1729716;83;20990;-66
2022/05/29 08:19:26;;;;;;;5.60;1.80;;;;;;;15.43;59.54;95248.06;1729415;83;21063;-67
2022/05/29 08:21:53;;;;;;;3.50;1.65;;;;;;;15.54;59.77;95238.66;1729408;83;20999;-66
2022/05/29 08:32:38;;;;;;;4.90;2.20;;;;;;;15.65;59.69;95255.95;1729596;82;21036;-66
2022/05/29 08:35:05;;;;;;;5.42;2.05;;;;;;;15.53;59.51;95252.91;1729562;82;21035;-66
2022/05/29 08:37:32;;;;;;;3.85;2.30;;;;;;;15.57;59.72;95253.19;1729642;83;20971;-66
2022/05/29 08:39:58;;;;;;;3.45;1.70;;;;;;;15.53;59.66;95247.59;1729356;82;21031;-66
2022/05/29 08:42:29;;;;;;;3.83;2.20;;;;;;;15.49;60.26;95249.11;1729157;83;21081;-66
2022/05/29 08:44:57;;;;;;;4.08;2.10;;;;;;;15.47;60.72;95248.30;1729484;83;21583;-66
2022/05/29 08:47:28;;;;;;;3.52;1.80;;;;;;;15.44;60.24;95252.44;1729474;83;21023;-66
2022/05/29 08:49:55;;;;;;;4.15;2.27;;;;;;;15.36;60.26;95254.09;1729340;82;21034;-66
2022/05/29 08:52:47;;;;;;;5.37;1.80;;;;;;;15.39;60.01;95246.45;1729303;83;21488;-66
2022/05/29 08:55:33;;;;;;;4.53;2.02;;;;;;;15.43;61.00;95252.91;1729440;83;21512;-66
2022/05/29 08:58:18;;;;;;;4.62;2.33;;;;;;;15.53;61.62;95250.72;1729359;83;21074;-67
2022/05/29 09:00:57;;;;;;;3.80;2.15;;;;;;;15.63;62.06;95253.37;1729330;82;21039;-67
2022/05/29 09:03:51;;;;;;;6.50;1.70;;;;;;;15.61;60.99;95235.28;1729481;82;21041;-66
2022/05/29 09:06:47;;;;;;;9.85;2.08;;;;;;;15.53;60.09;95244.07;1729341;83;21540;-66
2022/05/29 09:09:37;;;;;;;5.28;2.15;;;;;;;15.57;60.89;95244.31;1729445;83;21328;-66
2022/05/29 09:12:11;;;;;;;2.62;1.80;;;;;;;15.62;60.81;95242.31;1729751;83;21496;-66
2022/05/29 09:14:54;;;;;;;6.67;1.95;;;;;;;15.65;59.33;95225.36;1728336;83;21082;-66
2022/05/29 09:17:50;;;;;;;5.47;2.20;;;;;;;15.75;59.83;95238.72;1729523;83;21007;-66
2022/05/29 09:20:35;;;;;;;4.80;2.02;;;;;;;15.71;59.28;95251.73;1729309;82;21560;-66
2022/05/29 09:23:05;;;;;;;5.85;2.33;;;;;;;15.61;58.38;95261.02;1729182;83;21026;-66
2022/05/29 09:25:37;;;;;;;4.97;2.40;;;;;;;15.54;59.73;95269.25;1729169;82;21027;-66
2022/05/29 09:28:25;;;;;;;4.53;2.47;;;;;;;15.58;60.36;95273.98;1729500;83;21027;-66
2022/05/29 09:30:57;;;;;;;7.28;2.35;;;;;;;15.61;63.21;95270.33;1729348;83;21027;-66
2022/05/29 09:33:27;;;;;;;3.25;2.50;;;;;;;15.61;63.35;95276.50;1728199;83;21082;-66
2022/05/29 09:36:36;;;;;;;5.37;2.60;;;;;;;15.63;63.16;95270.66;1729488;83;20999;-66
2022/05/29 09:39:17;;;;;;;5.55;3.08;;;;;;;15.71;63.34;95269.02;1728979;83;21337;-66
2022/05/29 09:42:07;;;;;;;4.75;2.60;;;;;;;15.91;62.25;95258.36;1726050;83;21027;-66
2022/05/29 09:44:33;;;;;;;3.75;2.35;;;;;;;16.08;62.81;95263.41;1729397;83;21016;-66
2022/05/29 09:50:09;;;;;;;6.47;2.30;;;;;;;16.30;61.69;95273.44;1729809;82;21050;-66
2022/05/29 09:52:43;;;;;;;5.67;2.27;;;;;;;16.31;61.13;95262.34;1729204;82;21030;-66
2022/05/29 09:55:34;;;;;;;3.45;2.50;;;;;;;16.17;60.31;95261.16;1729569;83;21062;-66
2022/05/29 09:58:09;;;;;;;3.77;2.40;;;;;;;16.12;61.02;95259.65;1729668;83;21030;-66
2022/05/29 10:00:55;;;;;;;3.62;2.45;;;;;;;15.96;60.90;95256.83;1729502;83;21062;-66
2022/05/29 10:03:45;;;;;;;5.65;2.33;;;;;;;15.75;61.23;95252.87;1729514;83;21022;-66
2022/05/29 10:06:26;;;;;;;7.95;2.20;;;;;;;15.48;62.27;95264.68;1728640;83;21480;-67
2022/05/29 10:09:06;;;;;;;3.27;2.30;;;;;;;15.20;63.36;95263.66;1729738;82;21014;-67
2022/05/29 10:11:33;;;;;;;5.00;2.25;;;;;;;15.06;62.76;95266.41;1729340;83;21025;-66
2022/05/29 10:14:22;;;;;;;2.98;2.67;;;;;;;14.98;63.81;95257.90;1729317;82;21023;-66
2022/05/29 10:16:49;;;;;;;5.33;2.52;;;;;;;14.92;63.97;95252.37;1729861;82;21070;-66
2022/05/29 10:19:38;;;;;;;5.45;2.67;;;;;;;14.94;65.07;95236.36;1729399;83;21042;-66
2022/05/29 10:22:17;;;;;;;4.33;3.83;;;;;;;15.11;65.01;95235.66;1729636;83;21026;-66
2022/05/29 10:24:44;;;;;;;5.40;2.98;;;;;;;15.11;65.01;95235.66;1726040;83;21583;-66
2022/05/29 10:27:30;;;;;;;3.90;2.70;;;;;;;15.17;64.63;95237.19;1729429;83;21014;-66
2022/05/29 10:30:09;;;;;;;7.53;3.45;;;;;;;15.14;65.70;95239.08;1729614;82;21460;-66
2022/05/29 10:32:40;;;;;;;5.37;4.03;;;;;;;15.20;65.69;95247.25;1729566;83;21003;-66
2022/05/29 10:35:32;;;;;;;3.30;2.80;;;;;;;15.20;65.69;95247.25;1729193;83;21064;-66
2022/05/29 10:38:19;;;;;;;3.70;2.77;;;;;;;15.28;65.39;95247.78;1729740;83;20998;-67
2022/05/29 10:40:49;;;;;;;3.67;3.17;;;;;;;15.35;65.00;95245.27;1728397;83;21129;-66
2022/05/29 10:43:35;;;;;;;3.08;2.62;;;;;;;15.42;65.04;95249.86;1729510;83;21082;-66
2022/05/29 10:46:16;;;;;;;6.17;3.40;;;;;;;15.37;64.88;95246.50;1703492;84;21512;-66
2022/05/29 10:49:14;;;;;;;4.47;4.05;;;;;;;15.28;65.07;95245.59;1724371;83;21045;-67
2022/05/29 10:52:16;;;;;;;4.33;3.87;;;;;;;15.24;64.75;95236.00;1719055;83;21513;-66
2022/05/29 10:55:10;;;;;;;5.75;3.20;;;;;;;15.17;65.65;95238.08;1670464;83;21007;-66
2022/05/29 10:58:19;;;;;;;5.20;2.72;;;;;;;15.07;65.79;95236.73;1724412;83;21040;-66
2022/05/29 11:01:00;;;;;;;8.60;5.83;;;;;;;14.88;66.79;95234.83;1724551;83;21086;-67
2022/05/29 11:04:11;;;;;;;6.70;4.28;;;;;;;14.88;66.79;95234.83;1724107;83;21092;-67
2022/05/29 11:06:46;;;;;;;6.58;3.17;;;;;;;14.72;66.99;95239.05;1708582;83;21002;-66
2022/05/29 11:09:18;;;;;;;5.70;3.60;;;;;;;14.63;67.57;95228.31;1724349;83;21071;-67
2022/05/29 11:12:12;;;;;;;3.00;2.80;;;;;;;14.63;67.57;95228.31;1723249;83;21018;-67
2022/05/29 11:15:12;;;;;;;6.03;3.10;;;;;;;14.65;68.54;95228.27;1724596;82;21042;-67
2022/05/29 11:17:54;;;;;;;5.90;2.85;;;;;;;14.63;67.83;95220.35;1724178;82;21015;-67
2022/05/29 11:20:35;;;;;;;8.45;6.35;;;;;;;14.64;68.66;95220.77;1721784;83;21046;-66
2022/05/29 11:23:52;;;;;;;4.03;3.00;;;;;;;14.71;68.85;95214.26;1709215;83;21028;-66
2022/05/29 11:26:33;;;;;;;4.72;2.90;;;;;;;14.80;68.98;95207.72;1724280;82;21519;-66
2022/05/29 11:29:38;;;;;;;3.08;2.70;;;;;;;14.87;68.74;95205.69;1723949;83;21031;-66
2022/05/29 11:32:14;;;;;;;3.30;2.72;;;;;;;14.95;68.50;95212.01;1724452;83;21050;-66
2022/05/29 11:34:49;;;;;;;3.77;2.77;;;;;;;14.96;68.45;95199.11;1723239;83;21477;-66
2022/05/29 11:37:58;;;;;;;4.70;2.80;;;;;;;14.95;67.65;95196.92;1721308;83;21019;-66
2022/05/29 11:40:35;;;;;;;4.90;2.83;;;;;;;14.94;67.85;95188.54;1724077;83;21042;-66
2022/05/29 11:43:27;;;;;;;3.45;2.75;;;;;;;14.98;68.57;95179.52;1724355;83;21043;-66
2022/05/29 11:52:47;;;;;;;8.63;3.80;;;;;;;14.98;69.52;95167.56;1724298;83;20100;-66
2022/05/29 11:55:21;;;;;;;7.92;3.25;;;;;;;15.04;67.98;95156.66;1724411;83;21038;-66
2022/05/29 11:58:14;;;;;;;5.20;3.10;;;;;;;15.35;69.47;95121.66;1724276;83;21034;-67
2022/05/29 12:00:54;;;;;;;4.87;3.67;;;;;;;15.35;69.47;95121.66;1724507;83;21031;-67
2022/05/29 12:23:53;;;;;;;4.12;3.20;;;;;;;16.24;64.31;95116.67;1866189;77;22873;-67
2022/05/29 12:26:31;;;;;;;5.12;3.35;;;;;;;15.76;64.53;95119.40;1863220;77;21463;-67
2022/05/29 12:29:09;;;;;;;3.83;3.10;;;;;;;15.65;65.62;95129.17;1865782;77;21009;-67
2022/05/29 12:31:44;;;;;;;4.95;3.17;;;;;;;15.54;65.28;95136.30;1865838;77;21522;-67
2022/05/29 12:34:22;;;;;;;4.53;3.42;;;;;;;15.47;65.29;95145.95;1864539;77;21009;-66
2022/05/29 12:37:23;;;;;;;4.97;3.35;;;;;;;15.29;64.38;95143.17;1835764;78;21057;-66
2022/05/29 12:40:13;;;;;;;4.17;3.33;;;;;;;15.19;65.13;95129.89;1865506;77;21049;-66
2022/05/29 12:43:28;;;;;;;5.85;3.42;;;;;;;15.06;64.49;95134.03;1835740;78;21557;-67
2022/05/29 12:46:13;;;;;;;7.53;3.47;;;;;;;15.01;65.34;95124.06;1865522;77;20998;-67
2022/05/29 12:49:06;;;;;;;5.47;3.62;;;;;;;14.88;64.86;95130.37;1835700;78;20951;-67
2022/05/29 12:51:55;;;;;;;7.87;3.33;;;;;;;14.79;65.41;95131.64;1866386;77;21001;-67
2022/05/29 12:54:55;;;;;;;4.70;3.35;;;;;;;14.69;66.13;95132.49;1835945;78;21514;-67
2022/05/29 12:57:50;;;;;;;5.47;3.30;;;;;;;14.73;65.99;95123.92;1865927;77;21519;-67
2022/05/29 13:00:40;;;;;;;3.65;3.35;;;;;;;14.82;66.19;95114.24;1835718;78;21009;-67
2022/05/29 13:15:14;;;;;;;4.55;2.92;;;;;;;16.20;63.45;95076.05;1860124;77;22903;-67
2022/05/29 13:17:43;;;;;;;5.50;3.13;;;;;;;16.07;63.10;95074.89;1832435;78;21075;-66
2022/05/29 13:20:17;;;;;;;5.15;3.02;;;;;;;15.98;63.36;95068.70;1832261;78;21532;-67
2022/05/29 13:23:03;;;;;;;6.03;3.08;;;;;;;15.93;63.20;95066.27;1832221;78;21019;-66